createdAt,value
2023-02-25T00:01:24.164Z,2.12
2023-02-25T00:03:56.336Z,2.09
2023-02-25T00:06:24.835Z,2.27
2023-02-25T00:08:54.193Z,2.13
2023-02-25T00:11:23.891Z,2.06
2023-02-25T00:13:51.075Z,2.02
2023-02-25T00:16:20.301Z,2.00
2023-02-25T00:18:47.674Z,2.26
2023-02-25T00:21:17.263Z,2.09
2023-02-25T00:23:46.876Z,2.13
2023-02-25T00:26:16.292Z,2.01
2023-02-25T00:28:44.365Z,2.04
2023-02-25T00:31:19.477Z,2.18
2023-02-25T00:33:47.159Z,2.11
2023-02-25T00:36:21.092Z,2.13
2023-02-25T00:38:52.226Z,2.09
2023-02-25T00:41:22.462Z,1.93
2023-02-25T00:43:58.082Z,2.07
2023-02-25T00:46:27.100Z,2.03
2023-02-25T00:48:54.336Z,2.03
2023-02-25T00:51:25.236Z,1.81
2023-02-25T00:53:53.112Z,1.83
2023-02-25T00:56:20.873Z,1.74
2023-02-25T00:58:51.761Z,1.86
2023-02-25T01:01:22.541Z,1.45
2023-02-25T01:03:51.250Z,1.46
2023-02-25T01:06:18.918Z,1.60
2023-02-25T01:08:46.368Z,1.61
2023-02-25T01:11:29.206Z,1.56
2023-02-25T01:14:02.484Z,1.54
2023-02-25T01:16:32.273Z,1.64
2023-02-25T01:19:02.812Z,1.55
2023-02-25T01:21:34.118Z,1.51
2023-02-25T01:24:04.726Z,1.68
2023-02-25T01:26:34.227Z,1.62
2023-02-25T01:29:01.758Z,1.81
2023-02-25T01:31:32.006Z,2.16
2023-02-25T01:34:00.375Z,1.46
2023-02-25T01:36:29.930Z,1.39
2023-02-25T01:38:58.442Z,1.80
2023-02-25T01:41:27.887Z,1.50
2023-02-25T01:44:18.020Z,1.97
2023-02-25T01:46:51.028Z,1.82
2023-02-25T01:49:25.061Z,2.12
2023-02-25T01:51:57.136Z,2.04
2023-02-25T01:54:25.195Z,2.16
2023-02-25T01:56:55.788Z,2.44
2023-02-25T01:59:26.304Z,2.28
2023-02-25T02:01:53.868Z,2.37
2023-02-25T02:04:22.300Z,2.05
2023-02-25T02:06:51.346Z,2.04
2023-02-25T02:09:29.257Z,2.00
2023-02-25T02:11:59.658Z,2.13
2023-02-25T02:14:29.556Z,2.50
2023-02-25T02:17:13.126Z,1.98
2023-02-25T02:19:52.287Z,2.20
2023-02-25T02:22:30.840Z,2.10
2023-02-25T02:25:19.495Z,2.20
2023-02-25T02:28:17.429Z,2.23
2023-02-25T02:31:09.478Z,2.10
2023-02-25T02:33:55.356Z,2.15
2023-02-25T02:37:05.413Z,2.47
2023-02-25T02:39:46.231Z,2.17
2023-02-25T02:42:44.831Z,2.26
2023-02-25T02:45:16.720Z,2.19
2023-02-25T02:47:48.779Z,2.40
2023-02-25T02:50:46.450Z,2.14
2023-02-25T02:53:20.205Z,2.52
2023-02-25T02:55:53.674Z,2.54
2023-02-25T02:58:32.600Z,2.32
2023-02-25T03:01:09.786Z,2.38
2023-02-25T03:03:41.745Z,2.32
2023-02-25T03:06:13.966Z,2.09
2023-02-25T03:08:56.784Z,2.22
2023-02-25T03:11:24.434Z,2.37
2023-02-25T03:13:52.062Z,2.18
2023-02-25T03:16:34.844Z,2.09
2023-02-25T03:19:32.047Z,2.41
2023-02-25T03:22:08.789Z,2.21
2023-02-25T03:24:49.964Z,2.30
2023-02-25T03:27:34.332Z,2.17
2023-02-25T03:30:18.080Z,2.31
2023-02-25T03:32:49.742Z,2.19
2023-02-25T03:35:20.052Z,2.19
2023-02-25T03:37:52.184Z,2.38
2023-02-25T03:40:21.534Z,2.33
2023-02-25T03:42:59.517Z,2.38
2023-02-25T03:45:27.377Z,2.22
2023-02-25T03:47:57.621Z,2.05
2023-02-25T03:50:33.616Z,2.21
2023-02-25T03:53:04.860Z,2.38
2023-02-25T03:55:48.525Z,2.25
2023-02-25T03:58:16.065Z,2.48
2023-02-25T04:00:46.128Z,2.12
2023-02-25T04:03:13.556Z,2.64
2023-02-25T04:05:41.065Z,2.34
2023-02-25T04:08:15.688Z,2.08
2023-02-25T04:10:44.637Z,2.15
2023-02-25T04:13:15.101Z,2.44
2023-02-25T04:15:42.957Z,2.26
2023-02-25T04:18:10.269Z,2.67
2023-02-25T04:20:37.359Z,3.05
2023-02-25T04:23:04.781Z,2.22
2023-02-25T04:25:32.957Z,2.33
2023-02-25T04:28:00.327Z,2.73
2023-02-25T04:30:27.454Z,2.11
2023-02-25T04:32:54.889Z,2.21
2023-02-25T04:35:21.975Z,2.31
2023-02-25T04:37:49.342Z,2.52
2023-02-25T04:40:19.399Z,2.66
2023-02-25T04:42:47.690Z,2.26
2023-02-25T04:45:15.657Z,2.41
2023-02-25T04:47:43.505Z,2.07
2023-02-25T04:50:11.496Z,2.19
2023-02-25T04:52:38.891Z,2.53
2023-02-25T04:55:06.746Z,1.93
2023-02-25T04:57:34.124Z,1.87
2023-02-25T05:00:01.174Z,1.53
2023-02-25T05:02:28.606Z,1.23
2023-02-25T05:04:55.729Z,1.31
2023-02-25T05:07:23.275Z,2.03
2023-02-25T05:09:50.418Z,1.44
2023-02-25T05:12:17.740Z,1.38
2023-02-25T05:14:44.692Z,1.37
2023-02-25T05:17:15.688Z,2.13
2023-02-25T05:19:42.773Z,1.95
2023-02-25T05:22:10.607Z,1.99
2023-02-25T05:24:38.962Z,1.97
2023-02-25T05:27:06.275Z,1.84
2023-02-25T05:29:33.265Z,1.66
2023-02-25T05:32:01.040Z,2.30
2023-02-25T05:34:28.407Z,2.65
2023-02-25T05:36:55.733Z,1.69
2023-02-25T05:39:23.072Z,2.22
2023-02-25T05:41:51.700Z,1.64
2023-02-25T05:44:18.736Z,1.67
2023-02-25T05:46:46.228Z,1.53
2023-02-25T05:49:13.439Z,1.77
2023-02-25T05:51:40.747Z,1.89
2023-02-25T05:54:07.827Z,2.44
2023-02-25T05:56:35.184Z,2.45
2023-02-25T05:59:02.248Z,1.45
2023-02-25T06:01:30.518Z,2.16
2023-02-25T06:03:58.696Z,2.05
2023-02-25T06:06:29.059Z,1.79
2023-02-25T06:08:56.344Z,1.90
2023-02-25T06:11:28.177Z,2.07
2023-02-25T06:13:56.767Z,2.30
2023-02-25T06:16:26.271Z,2.06
2023-02-25T06:18:53.624Z,1.64
2023-02-25T06:21:21.266Z,1.53
2023-02-25T06:23:50.227Z,2.21
2023-02-25T06:26:18.781Z,2.04
2023-02-25T06:28:45.946Z,1.93
2023-02-25T06:31:15.138Z,1.73
2023-02-25T06:33:42.506Z,1.72
2023-02-25T06:36:10.593Z,1.72
2023-02-25T06:38:38.539Z,1.72
2023-02-25T06:41:14.144Z,1.90
2023-02-25T06:43:41.614Z,2.00
2023-02-25T06:46:13.745Z,1.78
2023-02-25T06:48:41.456Z,1.78
2023-02-25T06:51:10.507Z,1.95
2023-02-25T06:53:39.458Z,2.48
2023-02-25T06:56:10.788Z,2.27
2023-02-25T06:58:38.739Z,2.18
2023-02-25T07:01:12.222Z,2.73
2023-02-25T07:03:40.437Z,2.39
2023-02-25T07:06:08.958Z,2.43
2023-02-25T07:08:36.370Z,2.06
2023-02-25T07:11:34.897Z,2.19
2023-02-25T07:14:04.783Z,2.58
2023-02-25T07:16:34.351Z,2.51
2023-02-25T07:19:02.497Z,2.52
2023-02-25T07:21:31.185Z,2.90
2023-02-25T07:23:58.889Z,3.17
2023-02-25T07:26:29.706Z,3.15
2023-02-25T07:28:58.906Z,2.75
2023-02-25T07:31:28.028Z,2.77
2023-02-25T07:33:55.781Z,2.91
2023-02-25T07:36:23.722Z,2.81
2023-02-25T07:38:51.439Z,2.82
2023-02-25T07:41:19.683Z,2.99
2023-02-25T07:43:46.875Z,3.31
2023-02-25T07:46:14.754Z,3.25
2023-02-25T07:48:42.446Z,3.77
2023-02-25T07:51:17.261Z,3.22
2023-02-25T07:53:46.609Z,3.47
2023-02-25T07:56:16.074Z,3.66
2023-02-25T07:58:43.644Z,3.51
2023-02-25T08:01:26.661Z,3.42
2023-02-25T08:03:56.424Z,3.58
2023-02-25T08:06:24.539Z,3.72
2023-02-25T08:08:52.302Z,3.51
2023-02-25T08:11:22.333Z,3.81
2023-02-25T08:13:49.874Z,4.20
2023-02-25T08:16:19.671Z,3.72
2023-02-25T08:18:47.998Z,3.79
2023-02-25T08:21:21.913Z,3.86
2023-02-25T08:23:50.715Z,3.34
2023-02-25T08:26:19.141Z,3.03
2023-02-25T08:28:47.038Z,3.08
2023-02-25T08:31:15.136Z,2.96
2023-02-25T08:33:44.838Z,3.07
2023-02-25T08:36:16.380Z,2.69
2023-02-25T08:38:44.952Z,2.79
2023-02-25T08:41:13.155Z,2.96
2023-02-25T08:43:41.667Z,2.73
2023-02-25T08:46:10.184Z,3.10
2023-02-25T08:48:37.436Z,2.74
2023-02-25T08:51:09.756Z,3.38
2023-02-25T08:53:39.313Z,3.78
2023-02-25T08:56:12.181Z,3.81
2023-02-25T08:58:40.116Z,3.27
2023-02-25T09:01:15.160Z,2.97
2023-02-25T09:03:53.794Z,3.34
2023-02-25T09:06:24.035Z,3.06
2023-02-25T09:08:52.669Z,3.51
2023-02-25T09:11:21.767Z,3.96
2023-02-25T09:13:49.154Z,4.55
2023-02-25T09:16:17.416Z,4.17
2023-02-25T09:18:46.555Z,3.85
2023-02-25T09:21:15.085Z,4.40
2023-02-25T09:23:42.834Z,4.42
2023-02-25T09:26:10.641Z,4.35
2023-02-25T09:28:37.839Z,3.50
2023-02-25T09:31:05.652Z,3.02
2023-02-25T09:33:35.187Z,3.04
2023-02-25T09:36:11.379Z,3.58
2023-02-25T09:38:40.483Z,3.27
2023-02-25T09:41:33.529Z,4.22
2023-02-25T09:44:29.224Z,3.62
2023-02-25T09:47:05.277Z,3.74
2023-02-25T09:49:38.114Z,3.91
2023-02-25T09:52:22.572Z,3.51
2023-02-25T09:54:57.126Z,3.63
2023-02-25T09:57:25.117Z,4.05
2023-02-25T09:59:53.691Z,3.97
2023-02-25T10:02:25.954Z,3.93
2023-02-25T10:05:02.162Z,4.30
2023-02-25T10:07:36.365Z,3.68
2023-02-25T10:10:14.029Z,3.74
2023-02-25T10:12:41.416Z,3.88
2023-02-25T10:15:27.359Z,3.97
2023-02-25T10:18:13.371Z,3.82
2023-02-25T10:21:02.517Z,4.09
2023-02-25T10:23:51.392Z,3.96
2023-02-25T10:26:20.626Z,4.03
2023-02-25T10:28:55.111Z,4.45
2023-02-25T10:31:23.812Z,3.84
2023-02-25T10:33:53.775Z,4.25
2023-02-25T10:36:25.249Z,4.41
2023-02-25T10:38:53.900Z,3.64
2023-02-25T10:41:23.636Z,3.55
2023-02-25T10:43:51.857Z,4.05
2023-02-25T10:46:33.490Z,4.11
2023-02-25T10:49:23.097Z,3.37
2023-02-25T10:52:18.386Z,3.44
2023-02-25T10:54:50.710Z,3.32
2023-02-25T10:57:36.822Z,3.68
2023-02-25T11:00:32.015Z,3.44
2023-02-25T11:03:01.738Z,3.19
2023-02-25T11:05:35.594Z,3.09
2023-02-25T11:08:24.429Z,4.00
2023-02-25T11:11:13.723Z,3.07
2023-02-25T11:13:41.183Z,3.02
2023-02-25T11:16:14.607Z,3.38
2023-02-25T11:18:42.116Z,3.56
2023-02-25T11:21:16.319Z,3.03
2023-02-25T11:23:43.438Z,2.88
2023-02-25T11:26:30.298Z,2.75
2023-02-25T11:29:31.849Z,2.56
2023-02-25T11:32:07.804Z,2.86
2023-02-25T11:34:51.774Z,3.19
2023-02-25T11:37:43.358Z,3.07
2023-02-25T11:40:33.976Z,3.27
2023-02-25T11:43:18.438Z,3.21
2023-02-25T11:45:56.555Z,2.99
2023-02-25T11:48:29.537Z,2.97
2023-02-25T11:51:15.647Z,3.04
2023-02-25T11:53:49.303Z,2.49
2023-02-25T11:56:28.372Z,3.21
2023-02-25T11:59:13.395Z,2.63
2023-02-25T12:02:18.909Z,2.67
2023-02-25T12:05:11.277Z,2.56
2023-02-25T12:08:15.685Z,2.93
2023-02-25T12:10:55.816Z,2.60
2023-02-25T12:13:46.769Z,2.49
2023-02-25T12:16:23.813Z,2.80
2023-02-25T12:19:22.126Z,2.40
2023-02-25T12:22:27.216Z,2.81
2023-02-25T12:25:37.805Z,2.35
2023-02-25T12:28:45.193Z,2.71
2023-02-25T12:31:31.176Z,2.72
2023-02-25T12:34:25.875Z,2.54
2023-02-25T12:36:53.146Z,2.32
2023-02-25T12:39:48.073Z,2.38
2023-02-25T12:42:30.946Z,2.14
2023-02-25T12:45:01.195Z,2.77
2023-02-25T12:48:05.245Z,2.23
2023-02-25T12:50:51.584Z,2.44
2023-02-25T12:53:43.199Z,2.69
2023-02-25T12:56:33.990Z,2.54
2023-02-25T12:59:29.914Z,2.47
2023-02-25T13:02:22.555Z,2.55
2023-02-25T13:05:14.238Z,2.32
2023-02-25T13:08:15.858Z,2.57
2023-02-25T13:10:46.520Z,2.42
2023-02-25T13:13:25.111Z,2.38
2023-02-25T13:16:10.968Z,2.28
2023-02-25T13:18:50.873Z,2.16
2023-02-25T13:21:45.009Z,2.27
2023-02-25T13:24:41.906Z,2.11
2023-02-25T13:27:27.941Z,2.01
2023-02-25T13:30:12.137Z,1.87
2023-02-25T13:32:57.083Z,1.97
2023-02-25T13:36:02.622Z,1.61
2023-02-25T13:38:57.811Z,1.86
2023-02-25T13:41:53.213Z,1.98
2023-02-25T13:44:35.411Z,1.88
2023-02-25T13:47:18.004Z,2.18
2023-02-25T13:50:06.830Z,2.07
2023-02-25T13:53:02.598Z,1.35
2023-02-25T13:56:00.635Z,1.40
2023-02-25T13:59:25.561Z,1.37
2023-02-25T14:01:55.705Z,1.42
2023-02-25T14:04:33.488Z,1.16
2023-02-25T14:07:25.519Z,1.60
2023-02-25T14:09:59.030Z,1.85
2023-02-25T14:12:54.283Z,1.70
2023-02-25T14:15:39.124Z,1.45
2023-02-25T14:18:35.746Z,1.76
2023-02-25T14:21:03.247Z,1.56
2023-02-25T14:23:55.256Z,1.60
2023-02-25T14:26:45.780Z,1.73
2023-02-25T14:29:28.005Z,1.21
2023-02-25T14:32:25.985Z,0.96
2023-02-25T14:35:32.972Z,1.18
2023-02-25T14:38:13.051Z,1.23
2023-02-25T14:40:42.862Z,1.30
2023-02-25T14:43:25.523Z,0.97
2023-02-25T14:46:11.201Z,1.05
2023-02-25T14:48:43.044Z,1.37
2023-02-25T14:51:13.253Z,0.65
2023-02-25T14:54:11.541Z,0.55
2023-02-25T14:56:56.988Z,0.79
2023-02-25T14:59:53.566Z,0.86
2023-02-25T15:02:20.745Z,0.78
2023-02-25T15:05:10.077Z,1.07
2023-02-25T15:07:56.821Z,1.03
2023-02-25T15:10:41.628Z,0.97
2023-02-25T15:13:38.260Z,0.46
2023-02-25T15:16:21.716Z,0.67
2023-02-25T15:19:17.438Z,0.98
2023-02-25T15:21:47.608Z,0.87
2023-02-25T15:24:23.699Z,1.01
2023-02-25T15:26:51.932Z,1.09
2023-02-25T15:29:34.342Z,1.11
2023-02-25T15:32:11.053Z,1.10
2023-02-25T15:34:39.458Z,0.74
2023-02-25T15:37:29.212Z,0.92
2023-02-25T15:39:59.219Z,0.30
2023-02-25T15:43:24.784Z,0.82
2023-02-25T15:46:20.788Z,0.71
2023-02-25T15:49:11.599Z,0.57
2023-02-25T15:51:43.676Z,0.58
2023-02-25T15:54:28.661Z,0.53
2023-02-25T15:57:00.459Z,0.51
2023-02-25T15:59:48.710Z,0.35
2023-02-25T16:02:30.591Z,0.58
2023-02-25T16:05:00.913Z,0.22
2023-02-25T16:07:41.782Z,0.32
2023-02-25T16:10:18.508Z,0.79
2023-02-25T16:12:53.752Z,0.57
2023-02-25T16:15:28.940Z,0.40
2023-02-25T16:17:57.389Z,0.32
2023-02-25T16:20:46.509Z,0.54
2023-02-25T16:23:18.114Z,0.30
2023-02-25T16:25:57.034Z,0.28
2023-02-25T16:28:33.542Z,0.57
2023-02-25T16:31:14.663Z,0.61
2023-02-25T16:33:53.550Z,0.43
2023-02-25T16:36:58.582Z,0.44
2023-02-25T16:39:29.102Z,0.43
2023-02-25T16:42:03.965Z,0.62
2023-02-25T16:44:38.555Z,0.44
2023-02-25T16:47:26.057Z,0.54
2023-02-25T16:49:55.776Z,0.32
2023-02-25T16:52:37.700Z,0.27
2023-02-25T16:55:12.434Z,0.30
2023-02-25T16:57:40.240Z,0.42
2023-02-25T17:00:19.860Z,-0.04
2023-02-25T17:02:51.304Z,0.25
2023-02-25T17:05:29.417Z,0.71
2023-02-25T17:08:00.510Z,0.63
2023-02-25T17:10:32.585Z,0.29
2023-02-25T17:13:03.524Z,0.35
2023-02-25T17:15:36.438Z,0.54
2023-02-25T17:18:12.605Z,0.43
2023-02-25T17:20:40.501Z,0.44
2023-02-25T17:23:13.033Z,0.24
2023-02-25T17:25:47.094Z,0.23
2023-02-25T17:28:31.697Z,0.10
2023-02-25T17:31:14.306Z,0.12
2023-02-25T17:33:52.842Z,0.57
2023-02-25T17:36:25.740Z,0.28
2023-02-25T17:38:58.516Z,0.44
2023-02-25T17:41:26.615Z,0.25
2023-02-25T17:43:54.231Z,0.18
2023-02-25T17:46:44.100Z,0.21
2023-02-25T17:49:17.633Z,0.32
2023-02-25T17:51:45.234Z,0.13
2023-02-25T17:54:18.589Z,0.24
2023-02-25T17:56:46.728Z,0.08
2023-02-25T17:59:14.224Z,0.47
2023-02-25T18:01:55.401Z,0.10
2023-02-25T18:04:38.469Z,-0.04
2023-02-25T18:07:32.872Z,0.21
2023-02-25T18:10:01.526Z,0.03
2023-02-25T18:12:33.326Z,0.10
2023-02-25T18:15:03.006Z,0.07
2023-02-25T18:17:41.626Z,0.16
2023-02-25T18:20:34.127Z,0.35
2023-02-25T18:23:24.715Z,0.24
2023-02-25T18:26:25.725Z,0.09
2023-02-25T18:28:55.850Z,0.09
2023-02-25T18:31:24.047Z,-0.20
2023-02-25T18:33:52.183Z,-0.01
2023-02-25T18:36:23.768Z,0.36
2023-02-25T18:38:54.059Z,-0.12
2023-02-25T18:41:21.654Z,0.42
2023-02-25T18:43:48.994Z,-0.05
2023-02-25T18:46:16.773Z,0.17
2023-02-25T18:48:44.033Z,0.34
2023-02-25T18:51:15.090Z,-0.03
2023-02-25T18:53:42.416Z,0.25
2023-02-25T18:56:17.183Z,0.35
2023-02-25T18:58:45.417Z,0.17
2023-02-25T19:01:24.877Z,0.22
2023-02-25T19:03:54.085Z,0.45
2023-02-25T19:06:22.148Z,0.17
2023-02-25T19:08:49.962Z,0.28
2023-02-25T19:11:22.279Z,0.47
2023-02-25T19:13:51.170Z,0.21
2023-02-25T19:16:20.230Z,0.17
2023-02-25T19:18:49.644Z,0.61
2023-02-25T19:21:20.506Z,0.69
2023-02-25T19:23:51.765Z,0.36
2023-02-25T19:26:21.457Z,0.35
2023-02-25T19:28:49.543Z,0.21
2023-02-25T19:31:21.995Z,0.44
2023-02-25T19:33:51.010Z,0.22
2023-02-25T19:36:19.093Z,0.25
2023-02-25T19:38:46.843Z,0.24
2023-02-25T19:41:14.716Z,0.48
2023-02-25T19:43:42.547Z,0.42
2023-02-25T19:46:10.492Z,0.48
2023-02-25T19:48:38.156Z,0.47
2023-02-25T19:51:07.833Z,0.36
2023-02-25T19:53:36.165Z,0.21
2023-02-25T19:56:05.690Z,0.53
2023-02-25T19:58:33.454Z,-0.05
2023-02-25T20:01:06.835Z,0.04
2023-02-25T20:03:36.261Z,-0.02
2023-02-25T20:06:12.950Z,0.16
2023-02-25T20:08:42.119Z,0.41
2023-02-25T20:11:11.008Z,0.26
2023-02-25T20:13:38.907Z,0.47
2023-02-25T20:16:07.672Z,0.25
2023-02-25T20:18:35.105Z,0.41
2023-02-25T20:21:04.277Z,0.26
2023-02-25T20:23:32.109Z,0.10
2023-02-25T20:26:08.190Z,0.49
2023-02-25T20:28:36.377Z,0.39
2023-02-25T20:31:18.203Z,0.30
2023-02-25T20:33:49.452Z,0.24
2023-02-25T20:36:22.736Z,0.05
2023-02-25T20:39:29.607Z,-0.06
2023-02-25T20:41:58.099Z,0.03
2023-02-25T20:44:29.183Z,-0.10
2023-02-25T20:46:57.893Z,-0.34
2023-02-25T20:49:25.722Z,-0.15
2023-02-25T20:51:54.502Z,0.17
2023-02-25T20:54:22.276Z,-0.28
2023-02-25T20:56:50.428Z,-0.21
2023-02-25T20:59:19.507Z,-0.33
2023-02-25T21:01:47.787Z,0.07
2023-02-25T21:04:15.787Z,-0.10
2023-02-25T21:06:44.482Z,0.03
2023-02-25T21:09:12.233Z,0.18
2023-02-25T21:11:40.359Z,0.07
2023-02-25T21:14:10.667Z,-0.04
2023-02-25T21:16:39.356Z,0.10
2023-02-25T21:19:08.434Z,0.53
2023-02-25T21:21:40.025Z,0.71
2023-02-25T21:24:14.866Z,0.60
2023-02-25T21:26:43.878Z,0.58
2023-02-25T21:29:13.240Z,0.61
2023-02-25T21:31:41.478Z,0.47
2023-02-25T21:34:11.832Z,0.71
2023-02-25T21:36:40.553Z,0.42
2023-02-25T21:39:12.760Z,0.59
2023-02-25T21:41:44.369Z,0.41
2023-02-25T21:44:12.811Z,0.19
2023-02-25T21:46:41.064Z,0.40
2023-02-25T21:49:10.738Z,0.39
2023-02-25T21:51:40.316Z,0.37
2023-02-25T21:54:08.308Z,0.82
2023-02-25T21:56:36.058Z,0.54
2023-02-25T21:59:05.764Z,0.59
2023-02-25T22:01:36.013Z,0.45
2023-02-25T22:04:03.965Z,0.82
2023-02-25T22:06:31.838Z,0.65
2023-02-25T22:08:59.510Z,0.32
2023-02-25T22:11:30.370Z,0.53
2023-02-25T22:14:03.023Z,0.16
2023-02-25T22:16:30.836Z,0.40
2023-02-25T22:18:58.900Z,0.03
2023-02-25T22:21:28.993Z,-0.04
2023-02-25T22:23:58.015Z,0.22
2023-02-25T22:26:28.728Z,0.01
2023-02-25T22:28:58.541Z,0.09
2023-02-25T22:31:27.834Z,0.12
2023-02-25T22:33:56.752Z,-0.12
2023-02-25T22:36:25.449Z,0.26
2023-02-25T22:38:53.480Z,0.27
2023-02-25T22:41:24.305Z,0.81
2023-02-25T22:43:52.233Z,0.46
2023-02-25T22:46:21.457Z,0.75
2023-02-25T22:48:50.186Z,0.71
2023-02-25T22:51:26.302Z,0.27
2023-02-25T22:53:55.227Z,0.30
2023-02-25T22:56:24.586Z,0.27
2023-02-25T22:58:52.308Z,0.36
2023-02-25T23:01:22.691Z,0.12
2023-02-25T23:03:51.876Z,-0.02
2023-02-25T23:06:22.159Z,-0.11
2023-02-25T23:08:51.287Z,-0.12
2023-02-25T23:11:28.009Z,0.40
2023-02-25T23:14:00.265Z,0.07
2023-02-25T23:16:30.922Z,0.02
2023-02-25T23:19:00.108Z,0.54
2023-02-25T23:21:29.522Z,-0.02
2023-02-25T23:23:58.376Z,0.42
2023-02-25T23:26:29.113Z,0.43
2023-02-25T23:28:58.516Z,0.78
2023-02-25T23:31:34.931Z,0.92
2023-02-25T23:34:08.971Z,0.47
2023-02-25T23:36:41.633Z,0.75
2023-02-25T23:39:10.557Z,0.82
2023-02-25T23:41:39.170Z,0.78
2023-02-25T23:44:09.097Z,0.38
2023-02-25T23:46:37.618Z,0.43
2023-02-25T23:49:07.550Z,0.32
2023-02-25T23:51:36.527Z,0.42
2023-02-25T23:54:06.142Z,0.26
2023-02-25T23:56:33.758Z,0.25
2023-02-25T23:59:00.922Z,0.20
